Time;durP1;ratioP1;P1;durP2;ratioP2;P2;SDS_P1;SDS_P2;PMS_P1;PMS_P2;Temp;Humidity;BMP_temperature;BMP_pressure;BME280_temperature;BME280_humidity;BME280_pressure;Samples;Min_cycle;Max_cycle;Signal;HPM_P1;HPM_P2
2024/01/29 00:02:12;;;;;;;10.60;8.20;;;;;;;;;;5072645;28;20100;-82
2024/01/29 00:04:38;;;;;;;11.27;8.02;;;;;;;;;;5072436;28;20056;-82
2024/01/29 00:07:04;;;;;;;16.60;8.82;;;;;;;;;;5073316;28;20028;-82
2024/01/29 00:09:30;;;;;;;17.35;9.00;;;;;;;;;;5072494;28;20020;-82
2024/01/29 00:11:56;;;;;;;13.95;9.00;;;;;;;;;;5072388;28;20098;-82
2024/01/29 00:14:22;;;;;;;17.85;8.93;;;;;;;;;;5072235;28;20112;-82
2024/01/29 00:16:48;;;;;;;15.15;8.02;;;;;;;;;;5072315;28;20123;-82
2024/01/29 00:19:14;;;;;;;23.27;9.30;;;;;;;;;;5072290;28;20496;-81
2024/01/29 00:21:40;;;;;;;19.20;8.85;;;;;;;;;;5072222;28;20464;-82
2024/01/29 00:24:06;;;;;;;16.08;8.52;;;;;;;;;;5072912;28;20426;-83
2024/01/29 00:26:33;;;;;;;20.08;8.57;;;;;;;;;;5072226;28;20029;-83
2024/01/29 00:28:59;;;;;;;17.63;9.63;;;;;;;;;;5070371;28;20380;-83
2024/01/29 00:31:25;;;;;;;12.77;8.00;;;;;;;;;;5070733;28;20088;-83
2024/01/29 00:33:52;;;;;;;18.08;8.25;;;;;;;;;;5072080;28;20019;-83
2024/01/29 00:36:18;;;;;;;13.13;8.43;;;;;;;;;;5071688;28;20035;-83
2024/01/29 00:38:44;;;;;;;20.90;8.88;;;;;;;;;;5071789;28;20396;-83
2024/01/29 00:41:10;;;;;;;13.82;8.40;;;;;;;;;;5072007;28;20109;-83
2024/01/29 00:43:36;;;;;;;15.68;8.77;;;;;;;;;;5072743;28;20035;-83
2024/01/29 00:46:02;;;;;;;11.50;8.05;;;;;;;;;;5070207;28;20098;-83
2024/01/29 00:48:28;;;;;;;19.98;8.93;;;;;;;;;;5071718;28;20017;-84
2024/01/29 00:50:55;;;;;;;12.48;7.68;;;;;;;;;;5071734;28;20108;-83
2024/01/29 00:53:21;;;;;;;16.08;8.95;;;;;;;;;;5070438;28;20051;-83
2024/01/29 00:55:47;;;;;;;14.18;8.68;;;;;;;;;;5071145;28;20032;-82
2024/01/29 00:58:14;;;;;;;15.00;7.78;;;;;;;;;;5071569;28;20021;-82
2024/01/29 01:00:41;;;;;;;12.45;8.40;;;;;;;;;;5071727;28;20039;-82
2024/01/29 01:03:08;;;;;;;11.55;7.88;;;;;;;;;;5075489;28;20016;-81
2024/01/29 01:05:34;;;;;;;13.38;8.30;;;;;;;;;;5075274;28;20058;-82
2024/01/29 01:08:01;;;;;;;16.33;8.85;;;;;;;;;;5076098;28;20605;-82
2024/01/29 01:10:27;;;;;;;14.25;7.97;;;;;;;;;;5071345;28;20495;-82
2024/01/29 01:12:53;;;;;;;15.73;8.30;;;;;;;;;;5072319;28;20023;-82
2024/01/29 01:15:19;;;;;;;17.80;8.07;;;;;;;;;;5091538;28;20027;-83
2024/01/29 01:17:48;;;;;;;17.38;8.75;;;;;;;;;;5091358;28;20027;-82
2024/01/29 01:20:14;;;;;;;13.73;7.93;;;;;;;;;;5091287;28;20372;-82
2024/01/29 01:22:40;;;;;;;17.10;8.52;;;;;;;;;;5092229;28;20027;-82
2024/01/29 01:25:07;;;;;;;16.45;7.70;;;;;;;;;;5091627;28;20400;-82
2024/01/29 01:27:33;;;;;;;12.85;7.93;;;;;;;;;;5091052;28;20020;-82
2024/01/29 01:29:59;;;;;;;16.90;8.18;;;;;;;;;;5070733;28;20036;-82
2024/01/29 01:32:25;;;;;;;15.35;7.50;;;;;;;;;;5070777;28;20056;-82
2024/01/29 01:34:51;;;;;;;13.40;7.70;;;;;;;;;;5071065;28;20051;-82
2024/01/29 01:37:17;;;;;;;17.67;7.60;;;;;;;;;;5070953;28;20025;-82
2024/01/29 01:39:43;;;;;;;23.45;7.85;;;;;;;;;;5069447;28;20056;-82
2024/01/29 01:42:09;;;;;;;19.88;7.88;;;;;;;;;;5070014;28;20059;-82
2024/01/29 01:44:35;;;;;;;22.80;8.57;;;;;;;;;;5070911;28;20056;-82
2024/01/29 01:47:01;;;;;;;16.98;7.63;;;;;;;;;;5089434;28;20024;-82
2024/01/29 01:49:29;;;;;;;14.68;7.57;;;;;;;;;;5082936;28;20081;-82
2024/01/29 01:51:55;;;;;;;20.90;7.87;;;;;;;;;;5070488;28;20029;-83
2024/01/29 01:54:21;;;;;;;17.10;8.48;;;;;;;;;;5070523;28;20078;-82
2024/01/29 01:56:48;;;;;;;13.85;7.60;;;;;;;;;;5070431;28;20021;-84
2024/01/29 01:59:14;;;;;;;16.48;7.43;;;;;;;;;;5070334;28;20029;-83
2024/01/29 02:01:41;;;;;;;20.08;8.77;;;;;;;;;;5071089;28;20027;-82
2024/01/29 02:04:07;;;;;;;16.83;7.82;;;;;;;;;;5074256;28;20035;-82
2024/01/29 02:06:33;;;;;;;18.02;8.30;;;;;;;;;;5078956;28;20082;-82
2024/01/29 02:09:00;;;;;;;20.13;7.43;;;;;;;;;;5069269;28;20107;-82
2024/01/29 02:11:26;;;;;;;21.85;7.95;;;;;;;;;;5070215;28;20376;-82
2024/01/29 02:13:52;;;;;;;19.15;8.07;;;;;;;;;;5070018;28;20029;-82
2024/01/29 02:16:18;;;;;;;16.83;8.07;;;;;;;;;;5070110;28;20055;-82
2024/01/29 02:18:44;;;;;;;19.27;7.72;;;;;;;;;;5071508;28;20036;-82
2024/01/29 02:21:10;;;;;;;12.95;7.55;;;;;;;;;;5091022;28;20022;-82
2024/01/29 02:23:36;;;;;;;20.02;7.30;;;;;;;;;;5090312;28;20034;-82
2024/01/29 02:26:02;;;;;;;13.48;7.80;;;;;;;;;;5090177;28;20040;-82
2024/01/29 02:28:28;;;;;;;15.40;7.30;;;;;;;;;;5088450;28;20452;-82
2024/01/29 02:30:54;;;;;;;20.27;7.15;;;;;;;;;;5090202;28;20528;-82
2024/01/29 02:33:20;;;;;;;16.27;6.78;;;;;;;;;;5090062;28;20034;-82
2024/01/29 02:35:46;;;;;;;12.65;7.10;;;;;;;;;;5089457;28;20099;-82
2024/01/29 02:38:12;;;;;;;13.73;7.47;;;;;;;;;;5077892;28;20108;-82
2024/01/29 02:40:38;;;;;;;11.27;7.20;;;;;;;;;;5069627;28;20023;-82
2024/01/29 02:43:04;;;;;;;14.48;8.30;;;;;;;;;;5069405;28;20504;-82
2024/01/29 02:45:30;;;;;;;13.07;6.90;;;;;;;;;;5069452;28;20036;-82
2024/01/29 02:47:56;;;;;;;12.07;7.47;;;;;;;;;;5069344;28;20533;-82
2024/01/29 02:50:22;;;;;;;15.05;7.82;;;;;;;;;;5083715;28;20032;-82
2024/01/29 02:52:49;;;;;;;14.75;7.53;;;;;;;;;;5089713;28;20099;-82
2024/01/29 02:55:15;;;;;;;12.65;7.93;;;;;;;;;;5090514;28;20024;-82
2024/01/29 02:57:41;;;;;;;11.20;7.13;;;;;;;;;;5090447;28;20027;-82
2024/01/29 03:00:07;;;;;;;11.43;7.68;;;;;;;;;;5079291;28;20034;-82
2024/01/29 03:02:33;;;;;;;12.40;8.23;;;;;;;;;;5067800;28;20024;-82
2024/01/29 03:04:59;;;;;;;14.48;8.02;;;;;;;;;;5069203;28;20040;-83
2024/01/29 03:07:25;;;;;;;13.40;7.68;;;;;;;;;;5069272;28;20024;-81
2024/01/29 03:09:51;;;;;;;12.43;8.18;;;;;;;;;;5068110;28;20538;-84
2024/01/29 03:12:17;;;;;;;13.18;7.72;;;;;;;;;;5079605;28;20028;-82
2024/01/29 03:14:43;;;;;;;15.95;8.52;;;;;;;;;;5090166;28;20028;-82
2024/01/29 03:17:09;;;;;;;15.05;9.13;;;;;;;;;;5089379;28;20031;-82
2024/01/29 03:19:35;;;;;;;12.02;8.40;;;;;;;;;;5088993;28;20066;-82
2024/01/29 03:22:01;;;;;;;17.85;8.70;;;;;;;;;;5089249;28;20028;-82
2024/01/29 03:24:27;;;;;;;14.43;8.25;;;;;;;;;;5084392;28;20111;-82
2024/01/29 03:26:53;;;;;;;14.70;8.82;;;;;;;;;;5088939;28;20477;-82
2024/01/29 03:29:19;;;;;;;13.77;8.45;;;;;;;;;;5089047;28;20032;-82
2024/01/29 03:31:45;;;;;;;15.38;9.50;;;;;;;;;;5089928;28;20032;-83
2024/01/29 03:34:11;;;;;;;13.63;8.50;;;;;;;;;;5089181;28;20150;-82
2024/01/29 03:36:37;;;;;;;12.27;8.32;;;;;;;;;;5089060;28;20103;-82
2024/01/29 03:39:03;;;;;;;12.38;8.80;;;;;;;;;;5086508;28;20020;-82
2024/01/29 03:41:29;;;;;;;12.90;8.82;;;;;;;;;;5068816;28;20020;-82
2024/01/29 03:43:55;;;;;;;14.55;8.48;;;;;;;;;;5085063;28;20036;-82
2024/01/29 03:46:21;;;;;;;14.43;8.77;;;;;;;;;;5088892;28;20032;-82
2024/01/29 03:48:47;;;;;;;17.48;8.70;;;;;;;;;;5089892;28;20024;-82
2024/01/29 03:51:13;;;;;;;14.90;9.30;;;;;;;;;;5088725;28;20032;-82
2024/01/29 03:53:39;;;;;;;15.95;9.45;;;;;;;;;;5088313;28;20334;-82
2024/01/29 03:56:05;;;;;;;16.17;8.95;;;;;;;;;;5088822;28;20399;-82
2024/01/29 03:58:31;;;;;;;15.25;9.38;;;;;;;;;;5072743;28;20529;-84
2024/01/29 04:00:57;;;;;;;16.00;9.40;;;;;;;;;;5067800;28;20016;-82
2024/01/29 04:03:23;;;;;;;17.85;9.68;;;;;;;;;;5067893;28;20087;-82
2024/01/29 04:05:49;;;;;;;20.27;9.63;;;;;;;;;;5069064;28;20036;-84
2024/01/29 04:08:15;;;;;;;16.77;9.48;;;;;;;;;;5069046;28;20040;-84
2024/01/29 04:10:41;;;;;;;15.23;9.55;;;;;;;;;;5066453;28;20032;-82
2024/01/29 04:13:07;;;;;;;14.93;9.95;;;;;;;;;;5067925;28;20449;-85
2024/01/29 04:15:33;;;;;;;18.65;9.73;;;;;;;;;;5068534;28;20503;-81
2024/01/29 04:17:59;;;;;;;15.55;9.13;;;;;;;;;;5068403;28;20021;-84
2024/01/29 04:20:25;;;;;;;14.20;9.02;;;;;;;;;;5067711;28;20097;-82
2024/01/29 04:22:51;;;;;;;14.05;9.77;;;;;;;;;;5067589;28;20463;-84
2024/01/29 04:25:17;;;;;;;15.95;9.43;;;;;;;;;;5068025;28;20040;-85
2024/01/29 04:27:43;;;;;;;14.18;9.77;;;;;;;;;;5067802;28;20019;-84
2024/01/29 04:30:10;;;;;;;21.73;9.57;;;;;;;;;;5067895;28;20029;-85
2024/01/29 04:32:35;;;;;;;13.68;8.82;;;;;;;;;;5072492;28;20056;-81
2024/01/29 04:35:02;;;;;;;16.60;9.40;;;;;;;;;;5077979;28;20105;-84
2024/01/29 04:37:27;;;;;;;13.40;9.27;;;;;;;;;;5092309;28;20123;-84
2024/01/29 04:39:54;;;;;;;13.98;8.95;;;;;;;;;;5082519;28;20032;-84
2024/01/29 04:42:20;;;;;;;13.15;8.18;;;;;;;;;;5070390;28;20480;-82
2024/01/29 04:44:46;;;;;;;14.43;8.77;;;;;;;;;;5071181;28;20090;-82
2024/01/29 04:47:12;;;;;;;12.35;8.02;;;;;;;;;;5071620;28;20397;-82
2024/01/29 04:49:38;;;;;;;14.00;8.93;;;;;;;;;;5071666;28;20028;-82
2024/01/29 04:52:04;;;;;;;14.50;8.60;;;;;;;;;;5073944;28;20028;-83
2024/01/29 04:54:30;;;;;;;13.63;8.52;;;;;;;;;;5077602;28;20028;-83
2024/01/29 04:56:56;;;;;;;13.10;8.52;;;;;;;;;;5072320;28;20458;-82
2024/01/29 04:59:23;;;;;;;15.88;8.70;;;;;;;;;;5071684;28;20043;-83
2024/01/29 05:01:49;;;;;;;12.05;8.68;;;;;;;;;;5084385;28;20024;-82
2024/01/29 05:04:15;;;;;;;10.45;7.60;;;;;;;;;;5070955;28;20116;-82
2024/01/29 05:06:40;;;;;;;12.60;8.70;;;;;;;;;;5071039;28;20032;-83
2024/01/29 05:09:09;;;;;;;13.80;8.05;;;;;;;;;;5063829;28;20103;-84
2024/01/29 05:11:37;;;;;;;;;;;;;;;;;;5051953;28;20033;-83
2024/01/29 05:14:03;;;;;;;10.20;8.00;;;;;;;;;;5051381;28;19995;-84
2024/01/29 05:16:29;;;;;;;11.32;8.15;;;;;;;;;;5051139;28;20029;-83
2024/01/29 05:18:55;;;;;;;13.25;8.27;;;;;;;;;;5051114;28;20075;-83
2024/01/29 05:21:21;;;;;;;12.35;7.75;;;;;;;;;;5051787;28;20036;-82
2024/01/29 05:23:47;;;;;;;12.02;8.07;;;;;;;;;;5051100;28;20025;-82
2024/01/29 05:26:13;;;;;;;11.82;7.53;;;;;;;;;;5051448;28;20093;-83
2024/01/29 05:28:39;;;;;;;11.10;7.68;;;;;;;;;;5050599;28;20021;-83
2024/01/29 05:31:05;;;;;;;12.80;8.25;;;;;;;;;;5060145;28;20035;-82
2024/01/29 05:33:33;;;;;;;12.25;8.27;;;;;;;;;;5070555;28;20119;-82
2024/01/29 05:35:59;;;;;;;10.10;7.53;;;;;;;;;;5070017;28;20382;-83
2024/01/29 05:38:25;;;;;;;11.45;7.38;;;;;;;;;;5071115;28;20050;-82
2024/01/29 05:40:51;;;;;;;15.48;8.43;;;;;;;;;;5071636;28;20469;-84
2024/01/29 05:43:17;;;;;;;13.68;7.47;;;;;;;;;;5066101;28;20032;-82
2024/01/29 05:45:43;;;;;;;13.30;7.80;;;;;;;;;;5077279;28;20116;-83
2024/01/29 05:48:09;;;;;;;11.00;7.53;;;;;;;;;;5073219;28;20028;-82
2024/01/29 05:50:35;;;;;;;9.88;7.30;;;;;;;;;;5070217;28;20037;-82
2024/01/29 05:53:01;;;;;;;14.52;7.70;;;;;;;;;;5069866;28;20013;-84
2024/01/29 05:55:27;;;;;;;10.30;7.78;;;;;;;;;;5069952;28;20492;-83
2024/01/29 05:57:53;;;;;;;11.77;8.30;;;;;;;;;;5069776;28;20017;-83
2024/01/29 06:00:20;;;;;;;11.13;7.57;;;;;;;;;;5068822;28;20426;-82
2024/01/29 06:02:48;;;;;;;12.15;7.63;;;;;;;;;;5070500;28;20262;-82
2024/01/29 06:05:14;;;;;;;10.02;7.25;;;;;;;;;;5070166;28;20032;-83
2024/01/29 06:07:40;;;;;;;12.48;7.35;;;;;;;;;;5069885;28;20023;-83
2024/01/29 06:10:08;;;;;;;12.07;7.47;;;;;;;;;;5070230;28;20067;-82
2024/01/29 06:12:34;;;;;;;12.13;7.75;;;;;;;;;;5070219;28;20103;-82
2024/01/29 06:15:00;;;;;;;9.20;7.30;;;;;;;;;;5070233;28;20093;-82
2024/01/29 06:17:27;;;;;;;13.55;7.68;;;;;;;;;;5069497;28;20032;-83
2024/01/29 06:19:53;;;;;;;9.05;6.90;;;;;;;;;;5070892;28;20070;-83
2024/01/29 06:22:19;;;;;;;10.55;7.22;;;;;;;;;;5069973;28;20025;-82
2024/01/29 06:24:45;;;;;;;8.15;6.90;;;;;;;;;;5069297;28;20381;-82
2024/01/29 06:27:11;;;;;;;9.85;7.20;;;;;;;;;;5069854;28;20017;-82
2024/01/29 06:29:37;;;;;;;10.88;7.40;;;;;;;;;;5068431;28;20040;-83
2024/01/29 06:32:03;;;;;;;9.52;6.90;;;;;;;;;;5068461;28;20056;-82
2024/01/29 06:34:29;;;;;;;10.65;7.65;;;;;;;;;;5069737;28;20132;-83
2024/01/29 06:36:55;;;;;;;10.77;7.28;;;;;;;;;;5071184;28;20062;-83
2024/01/29 06:39:21;;;;;;;9.82;6.80;;;;;;;;;;5090114;28;20028;-83
2024/01/29 06:41:47;;;;;;;10.57;6.70;;;;;;;;;;5088640;28;20438;-83
2024/01/29 06:44:13;;;;;;;10.02;7.30;;;;;;;;;;5089881;28;20024;-83
2024/01/29 06:46:39;;;;;;;11.38;6.90;;;;;;;;;;5089886;28;20499;-83
2024/01/29 06:49:06;;;;;;;8.68;7.03;;;;;;;;;;5089758;28;20035;-82
2024/01/29 06:51:32;;;;;;;11.75;6.97;;;;;;;;;;5089336;28;20031;-83
2024/01/29 06:54:00;;;;;;;14.63;7.15;;;;;;;;;;5089745;28;20020;-82
2024/01/29 06:56:26;;;;;;;13.20;7.40;;;;;;;;;;5090503;28;20037;-82
2024/01/29 06:58:53;;;;;;;10.27;6.88;;;;;;;;;;5089659;28;20457;-81
2024/01/29 07:01:21;;;;;;;8.77;6.55;;;;;;;;;;5087600;28;20260;-83
2024/01/29 07:03:47;;;;;;;8.52;6.43;;;;;;;;;;5089528;28;20035;-83
2024/01/29 07:06:14;;;;;;;9.55;7.32;;;;;;;;;;5090844;28;20039;-85
2024/01/29 07:08:39;;;;;;;10.40;6.68;;;;;;;;;;5101047;28;20024;-86
2024/01/29 07:11:05;;;;;;;9.43;6.80;;;;;;;;;;5084351;28;20024;-85
2024/01/29 07:13:32;;;;;;;8.98;6.30;;;;;;;;;;5089296;28;20028;-85
2024/01/29 07:15:59;;;;;;;10.57;6.53;;;;;;;;;;5089930;28;20020;-85
2024/01/29 07:18:25;;;;;;;9.60;6.95;;;;;;;;;;5089916;28;20020;-85
2024/01/29 07:20:51;;;;;;;8.65;6.68;;;;;;;;;;5088928;28;20020;-85
2024/01/29 07:23:17;;;;;;;10.45;6.97;;;;;;;;;;5087758;28;20095;-85
2024/01/29 07:25:43;;;;;;;8.40;6.50;;;;;;;;;;5088569;28;20043;-85
2024/01/29 07:28:09;;;;;;;9.82;6.53;;;;;;;;;;5088826;28;20028;-85
2024/01/29 07:30:35;;;;;;;13.38;7.05;;;;;;;;;;5088777;28;20043;-84
2024/01/29 07:33:02;;;;;;;10.63;6.63;;;;;;;;;;5088724;28;20090;-86
2024/01/29 07:35:28;;;;;;;9.63;6.53;;;;;;;;;;5089422;28;20024;-87
2024/01/29 07:37:54;;;;;;;8.20;6.70;;;;;;;;;;5088696;28;20052;-86
2024/01/29 07:40:20;;;;;;;9.85;6.95;;;;;;;;;;5086200;28;20431;-85
2024/01/29 07:42:46;;;;;;;10.30;6.78;;;;;;;;;;5068627;28;20025;-85
2024/01/29 07:45:13;;;;;;;9.32;6.97;;;;;;;;;;5068439;28;20017;-86
2024/01/29 07:47:39;;;;;;;9.55;6.78;;;;;;;;;;5067305;28;20039;-85
2024/01/29 07:50:05;;;;;;;11.65;6.75;;;;;;;;;;5068763;28;20029;-84
2024/01/29 07:52:31;;;;;;;8.77;6.78;;;;;;;;;;5069570;28;20099;-84
2024/01/29 07:54:57;;;;;;;8.85;6.95;;;;;;;;;;5069574;28;20035;-85
2024/01/29 07:57:24;;;;;;;10.95;6.45;;;;;;;;;;5067115;28;20028;-85
2024/01/29 07:59:50;;;;;;;8.05;6.50;;;;;;;;;;5068670;28;20103;-84
2024/01/29 08:02:16;;;;;;;9.55;6.63;;;;;;;;;;5068539;28;20445;-86
2024/01/29 08:04:42;;;;;;;9.20;6.90;;;;;;;;;;5068490;28;20119;-87
2024/01/29 08:07:08;;;;;;;8.15;6.25;;;;;;;;;;5071644;28;20073;-84
2024/01/29 08:09:34;;;;;;;10.88;7.07;;;;;;;;;;5072318;28;20028;-85
2024/01/29 08:12:00;;;;;;;10.13;6.20;;;;;;;;;;5071548;28;20544;-85
2024/01/29 08:14:26;;;;;;;10.82;6.45;;;;;;;;;;5072203;28;20024;-85
2024/01/29 08:16:52;;;;;;;7.63;6.45;;;;;;;;;;5056469;28;20209;-86
2024/01/29 08:19:18;;;;;;;10.95;6.93;;;;;;;;;;5055965;28;20028;-85
2024/01/29 08:21:45;;;;;;;8.32;6.70;;;;;;;;;;5069770;28;20032;-85
2024/01/29 08:24:11;;;;;;;9.00;6.47;;;;;;;;;;5065440;28;20016;-85
2024/01/29 08:26:37;;;;;;;9.88;7.15;;;;;;;;;;5072538;28;20554;-85
2024/01/29 08:29:03;;;;;;;11.50;7.47;;;;;;;;;;5070721;28;20028;-85
2024/01/29 08:31:30;;;;;;;10.82;7.00;;;;;;;;;;5071640;28;20370;-86
2024/01/29 08:33:56;;;;;;;8.88;6.93;;;;;;;;;;5073880;28;20023;-85
2024/01/29 08:36:22;;;;;;;8.63;7.00;;;;;;;;;;5071074;28;20021;-85
2024/01/29 08:38:48;;;;;;;11.60;7.13;;;;;;;;;;5069335;28;20404;-87
2024/01/29 08:41:15;;;;;;;9.75;7.18;;;;;;;;;;5070299;28;20506;-86
2024/01/29 08:43:41;;;;;;;11.23;7.57;;;;;;;;;;5070666;28;20025;-86
2024/01/29 08:46:07;;;;;;;12.30;7.15;;;;;;;;;;5070716;28;20032;-86
2024/01/29 08:48:33;;;;;;;12.13;7.72;;;;;;;;;;5071770;28;20054;-88
2024/01/29 08:50:59;;;;;;;12.10;7.32;;;;;;;;;;5071297;28;20028;-85
2024/01/29 08:53:25;;;;;;;11.60;7.18;;;;;;;;;;5069940;28;20029;-85
2024/01/29 08:55:51;;;;;;;10.40;7.43;;;;;;;;;;5071465;28;20051;-85
2024/01/29 08:58:17;;;;;;;9.30;7.22;;;;;;;;;;5080534;28;20060;-85
2024/01/29 09:00:43;;;;;;;9.85;6.85;;;;;;;;;;5079000;28;20028;-85
2024/01/29 09:03:09;;;;;;;8.85;6.90;;;;;;;;;;5069516;28;20103;-84
2024/01/29 09:05:36;;;;;;;9.65;7.38;;;;;;;;;;5070337;28;20040;-85
2024/01/29 09:08:02;;;;;;;10.60;6.80;;;;;;;;;;5068581;28;20507;-84
2024/01/29 09:10:28;;;;;;;11.45;7.60;;;;;;;;;;5070354;28;20028;-85
2024/01/29 09:12:54;;;;;;;8.73;7.15;;;;;;;;;;5070742;28;20021;-85
2024/01/29 09:15:20;;;;;;;9.05;6.93;;;;;;;;;;5070961;28;20036;-84
2024/01/29 09:17:46;;;;;;;10.35;6.85;;;;;;;;;;5068769;28;20397;-84
2024/01/29 09:20:12;;;;;;;12.75;6.80;;;;;;;;;;5071207;28;20033;-84
2024/01/29 09:22:38;;;;;;;9.68;7.07;;;;;;;;;;5070244;28;20100;-84
2024/01/29 09:25:06;;;;;;;9.88;6.60;;;;;;;;;;5071538;28;20112;-85
2024/01/29 09:27:32;;;;;;;9.18;6.75;;;;;;;;;;5071626;28;20028;-90
2024/01/29 09:29:58;;;;;;;11.18;6.88;;;;;;;;;;5070887;28;20039;-83
2024/01/29 09:32:24;;;;;;;11.00;6.97;;;;;;;;;;5071011;28;20024;-86
2024/01/29 09:34:50;;;;;;;12.93;7.18;;;;;;;;;;5071006;28;20024;-84
2024/01/29 09:37:19;;;;;;;10.73;6.75;;;;;;;;;;5069721;28;20357;-88
2024/01/29 09:39:45;;;;;;;10.20;6.95;;;;;;;;;;5070817;28;20024;-86
2024/01/29 09:42:14;;;;;;;11.50;6.75;;;;;;;;;;5070665;28;20024;-86
2024/01/29 09:44:41;;;;;;;8.70;6.47;;;;;;;;;;5070448;28;20087;-87
2024/01/29 09:47:07;;;;;;;8.63;6.75;;;;;;;;;;5071143;28;20132;-83
2024/01/29 09:49:37;;;;;;;8.57;6.50;;;;;;;;;;5071558;28;20096;-88
2024/01/29 09:52:04;;;;;;;11.88;6.13;;;;;;;;;;5071421;28;20024;-86
2024/01/29 09:54:30;;;;;;;11.00;6.72;;;;;;;;;;5070591;28;20027;-87
2024/01/29 09:56:56;;;;;;;12.45;6.72;;;;;;;;;;5070568;28;20113;-86
2024/01/29 09:59:23;;;;;;;7.85;6.57;;;;;;;;;;5069057;28;20106;-85
2024/01/29 10:01:49;;;;;;;7.78;6.32;;;;;;;;;;5068789;28;20169;-86
2024/01/29 10:04:15;;;;;;;8.55;6.25;;;;;;;;;;5070415;28;20065;-85
2024/01/29 10:06:41;;;;;;;8.07;6.03;;;;;;;;;;5070538;28;20128;-85
2024/01/29 10:09:14;;;;;;;8.75;6.53;;;;;;;;;;5086151;28;20025;-84
2024/01/29 10:11:42;;;;;;;8.27;6.18;;;;;;;;;;5070458;28;20024;-87
2024/01/29 10:14:08;;;;;;;10.80;6.78;;;;;;;;;;5071922;28;20083;-84
2024/01/29 10:16:34;;;;;;;8.77;6.70;;;;;;;;;;5076025;28;20024;-87
2024/01/29 10:19:02;;;;;;;9.00;6.47;;;;;;;;;;5050429;28;20420;-87
2024/01/29 10:21:32;;;;;;;11.48;6.97;;;;;;;;;;5065168;28;20392;-88
2024/01/29 10:23:58;;;;;;;7.40;6.25;;;;;;;;;;5050130;28;20029;-87
2024/01/29 10:26:25;;;;;;;9.13;6.32;;;;;;;;;;5049825;28;20385;-88
2024/01/29 10:29:02;;;;;;;8.10;6.53;;;;;;;;;;5064292;28;20040;-88
2024/01/29 10:31:28;;;;;;;9.80;7.10;;;;;;;;;;5065871;28;20025;-87
2024/01/29 10:33:54;;;;;;;8.70;6.22;;;;;;;;;;5069939;28;20380;-87
2024/01/29 10:36:21;;;;;;;10.00;6.40;;;;;;;;;;5069723;28;20020;-86
2024/01/29 10:38:47;;;;;;;13.85;6.95;;;;;;;;;;5069682;28;20467;-88
2024/01/29 10:41:17;;;;;;;10.32;6.65;;;;;;;;;;5069705;28;20052;-88
2024/01/29 10:43:47;;;;;;;8.18;6.28;;;;;;;;;;5069253;28;20024;-88
2024/01/29 10:46:17;;;;;;;8.00;6.05;;;;;;;;;;5069521;28;20032;-87
2024/01/29 10:48:43;;;;;;;7.47;6.45;;;;;;;;;;5069570;28;20565;-88
2024/01/29 10:51:11;;;;;;;9.85;7.00;;;;;;;;;;5070448;28;20024;-84
2024/01/29 10:53:38;;;;;;;8.93;6.43;;;;;;;;;;5070014;28;20074;-87
2024/01/29 10:56:05;;;;;;;9.00;6.40;;;;;;;;;;5069412;28;20108;-88
2024/01/29 10:58:31;;;;;;;8.48;6.50;;;;;;;;;;5069537;28;20082;-85
2024/01/29 11:00:58;;;;;;;8.13;5.70;;;;;;;;;;5068954;28;20032;-87
2024/01/29 11:03:26;;;;;;;10.20;5.97;;;;;;;;;;5069166;28;20098;-87
2024/01/29 11:05:56;;;;;;;9.35;6.30;;;;;;;;;;5069247;28;20028;-87
2024/01/29 11:08:24;;;;;;;8.38;5.90;;;;;;;;;;5069381;28;20111;-88
2024/01/29 11:10:50;;;;;;;9.48;6.18;;;;;;;;;;5069323;28;20028;-87
2024/01/29 11:13:17;;;;;;;10.35;5.90;;;;;;;;;;5075828;28;20499;-84
2024/01/29 11:15:43;;;;;;;6.95;5.90;;;;;;;;;;5089013;28;20024;-86
2024/01/29 11:18:10;;;;;;;9.27;5.85;;;;;;;;;;5090104;28;20475;-86
2024/01/29 11:20:39;;;;;;;9.00;6.40;;;;;;;;;;5089912;28;20028;-86
2024/01/29 11:23:05;;;;;;;;;;;;;;;;;;5089718;28;20480;-86
2024/01/29 11:25:32;;;;;;;10.02;5.78;;;;;;;;;;5087896;28;19963;-84
2024/01/29 11:27:58;;;;;;;9.05;6.18;;;;;;;;;;5088757;28;20053;-85
2024/01/29 11:30:25;;;;;;;14.07;6.50;;;;;;;;;;5077483;28;20093;-85
2024/01/29 11:32:52;;;;;;;12.68;6.07;;;;;;;;;;5068591;28;20032;-86
2024/01/29 11:35:19;;;;;;;9.73;6.05;;;;;;;;;;5068860;28;20020;-87
2024/01/29 11:37:49;;;;;;;11.27;6.10;;;;;;;;;;5068589;28;20020;-84
2024/01/29 11:40:34;;;;;;;8.95;6.13;;;;;;;;;;5070696;28;20044;-84
2024/01/29 11:43:01;;;;;;;9.98;6.03;;;;;;;;;;5072632;28;20483;-84
2024/01/29 11:45:30;;;;;;;11.70;6.20;;;;;;;;;;5071122;28;20033;-84
2024/01/29 11:47:57;;;;;;;9.90;6.25;;;;;;;;;;5072994;28;20032;-85
2024/01/29 11:50:24;;;;;;;8.45;6.25;;;;;;;;;;5072629;28;20527;-85
2024/01/29 11:52:50;;;;;;;7.65;5.38;;;;;;;;;;5069577;28;20120;-85
2024/01/29 11:55:17;;;;;;;7.72;5.50;;;;;;;;;;5070579;28;20107;-85
2024/01/29 11:57:44;;;;;;;8.07;5.80;;;;;;;;;;5071266;28;20029;-84
2024/01/29 12:00:11;;;;;;;10.35;5.43;;;;;;;;;;5073214;28;20472;-85
2024/01/29 12:02:37;;;;;;;10.20;5.88;;;;;;;;;;5072262;28;20028;-86
2024/01/29 12:05:03;;;;;;;9.43;5.72;;;;;;;;;;5070666;28;20032;-87
2024/01/29 12:07:29;;;;;;;8.52;5.50;;;;;;;;;;5070865;28;20033;-85
2024/01/29 12:09:55;;;;;;;10.32;5.85;;;;;;;;;;5072743;28;20172;-85
2024/01/29 12:12:21;;;;;;;7.65;5.55;;;;;;;;;;5072751;28;20036;-87
2024/01/29 12:14:47;;;;;;;9.18;5.55;;;;;;;;;;5072387;28;20380;-85
2024/01/29 12:17:14;;;;;;;6.55;5.30;;;;;;;;;;5073381;28;20112;-85
2024/01/29 12:19:40;;;;;;;7.70;5.80;;;;;;;;;;5071653;28;20016;-86
2024/01/29 12:22:12;;;;;;;7.50;5.40;;;;;;;;;;5072216;28;20052;-87
2024/01/29 12:24:38;;;;;;;8.00;5.55;;;;;;;;;;5072228;28;20108;-86
2024/01/29 12:27:04;;;;;;;6.93;5.60;;;;;;;;;;5072322;28;20124;-87
2024/01/29 12:29:34;;;;;;;8.32;5.30;;;;;;;;;;5072133;28;20029;-86
2024/01/29 12:32:06;;;;;;;7.22;5.60;;;;;;;;;;5072138;28;20025;-87
2024/01/29 12:34:32;;;;;;;8.80;5.75;;;;;;;;;;5071974;28;20021;-85
2024/01/29 12:36:58;;;;;;;8.75;6.15;;;;;;;;;;5071879;28;20024;-86
2024/01/29 12:39:26;;;;;;;10.57;5.50;;;;;;;;;;5072146;28;20031;-86
2024/01/29 12:41:52;;;;;;;9.43;5.50;;;;;;;;;;5071969;28;20025;-86
2024/01/29 12:44:18;;;;;;;15.10;5.63;;;;;;;;;;5071937;28;20017;-86
2024/01/29 12:46:54;;;;;;;7.75;5.43;;;;;;;;;;5072599;28;20032;-87
2024/01/29 12:49:20;;;;;;;7.45;5.50;;;;;;;;;;5071763;28;20050;-87
2024/01/29 12:51:48;;;;;;;9.50;5.65;;;;;;;;;;5071495;28;20422;-86
2024/01/29 12:54:14;;;;;;;9.43;5.22;;;;;;;;;;5052492;28;20021;-87
2024/01/29 12:56:40;;;;;;;6.72;5.60;;;;;;;;;;5051758;28;20024;-86
2024/01/29 12:59:07;;;;;;;8.30;5.80;;;;;;;;;;5051613;28;20033;-86
2024/01/29 13:01:33;;;;;;;8.00;5.57;;;;;;;;;;5066984;28;20028;-87
2024/01/29 13:03:58;;;;;;;11.00;6.10;;;;;;;;;;5066924;28;20025;-87
2024/01/29 13:06:24;;;;;;;8.60;5.65;;;;;;;;;;5051566;28;20108;-86
2024/01/29 13:08:50;;;;;;;11.70;6.53;;;;;;;;;;5061931;28;20029;-86
2024/01/29 13:11:16;;;;;;;9.70;5.72;;;;;;;;;;5090084;28;20040;-85
2024/01/29 13:13:42;;;;;;;8.57;5.57;;;;;;;;;;5088833;28;20013;-85
2024/01/29 13:16:08;;;;;;;8.43;5.63;;;;;;;;;;5087009;28;20303;-86
2024/01/29 13:18:34;;;;;;;8.85;5.47;;;;;;;;;;5071542;28;20024;-87
2024/01/29 13:21:00;;;;;;;8.32;5.63;;;;;;;;;;5071394;28;20361;-86
2024/01/29 13:23:26;;;;;;;7.30;5.70;;;;;;;;;;5071332;28;20081;-86
2024/01/29 13:25:52;;;;;;;8.15;5.95;;;;;;;;;;5071136;28;20449;-86
2024/01/29 13:28:18;;;;;;;10.00;5.78;;;;;;;;;;5071776;28;20036;-87
2024/01/29 13:30:44;;;;;;;12.00;6.60;;;;;;;;;;5072069;28;20032;-86
2024/01/29 13:33:11;;;;;;;10.05;5.82;;;;;;;;;;5071067;28;20028;-87
2024/01/29 13:35:37;;;;;;;11.38;6.18;;;;;;;;;;5070726;28;20037;-86
2024/01/29 13:38:03;;;;;;;9.38;5.45;;;;;;;;;;5071045;28;20028;-86
2024/01/29 13:40:29;;;;;;;7.72;5.32;;;;;;;;;;5070999;28;20447;-87
2024/01/29 13:42:56;;;;;;;9.00;5.60;;;;;;;;;;5070913;28;20461;-84
2024/01/29 13:45:22;;;;;;;17.88;7.32;;;;;;;;;;5070729;28;20457;-86
2024/01/29 13:47:49;;;;;;;18.50;10.35;;;;;;;;;;5071605;28;20025;-87
2024/01/29 13:50:15;;;;;;;17.10;10.00;;;;;;;;;;5071601;28;20043;-87
2024/01/29 13:52:41;;;;;;;9.45;5.90;;;;;;;;;;5070826;28;20082;-88
2024/01/29 13:55:09;;;;;;;9.55;5.22;;;;;;;;;;5070713;28;20024;-87
2024/01/29 13:57:34;;;;;;;8.75;5.05;;;;;;;;;;5069500;28;20396;-87
2024/01/29 14:00:03;;;;;;;10.15;5.47;;;;;;;;;;5069784;28;20536;-85
2024/01/29 14:02:30;;;;;;;;;;;;;;;;;;5070341;28;20020;-86
2024/01/29 14:04:56;;;;;;;7.65;5.43;;;;;;;;;;5070268;28;19912;-87
2024/01/29 14:07:22;;;;;;;10.77;5.55;;;;;;;;;;5070556;28;20362;-85
2024/01/29 14:09:48;;;;;;;10.10;5.38;;;;;;;;;;5071107;28;20060;-86
2024/01/29 14:12:14;;;;;;;10.60;5.63;;;;;;;;;;5070260;28;20028;-87
2024/01/29 14:14:40;;;;;;;9.13;5.28;;;;;;;;;;5070136;28;20021;-85
2024/01/29 14:17:06;;;;;;;9.57;5.55;;;;;;;;;;5068298;28;20028;-84
2024/01/29 14:19:32;;;;;;;10.90;6.00;;;;;;;;;;5087526;28;20028;-86
2024/01/29 14:21:58;;;;;;;7.35;5.40;;;;;;;;;;5090283;28;20383;-85
2024/01/29 14:24:24;;;;;;;9.52;6.25;;;;;;;;;;5090298;28;20032;-86
2024/01/29 14:26:50;;;;;;;8.80;5.88;;;;;;;;;;5090980;28;20035;-87
2024/01/29 14:29:16;;;;;;;9.40;5.90;;;;;;;;;;5089463;28;20038;-86
2024/01/29 14:31:42;;;;;;;11.77;5.93;;;;;;;;;;5069775;28;20248;-86